Time;durP1;ratioP1;P1;durP2;ratioP2;P2;SDS_P1;SDS_P2;PMS_P1;PMS_P2;Temp;Humidity;BMP_temperature;BMP_pressure;BME280_temperature;BME280_humidity;BME280_pressure;Samples;Min_cycle;Max_cycle;Signal;HPM_P1;HPM_P2
2022/05/22 00:00:58;;;;;;;6.57;1.27;;;;;;;18.53;30.84;98279.19;5138818;27;20030;-63
2022/05/22 00:03:23;;;;;;;4.45;1.63;;;;;;;18.52;30.55;98282.88;5132980;27;20042;-62
2022/05/22 00:05:49;;;;;;;2.80;1.30;;;;;;;18.53;31.08;98283.72;5147446;27;20031;-64
2022/05/22 00:08:14;;;;;;;2.42;1.17;;;;;;;18.51;31.03;98281.22;5149642;27;20030;-64
2022/05/22 00:10:40;;;;;;;4.18;1.40;;;;;;;18.50;31.07;98292.16;5153629;27;20045;-65
2022/05/22 00:13:06;;;;;;;3.28;1.48;;;;;;;18.49;31.16;98279.78;5153844;27;20034;-65
2022/05/22 00:15:32;;;;;;;5.85;1.20;;;;;;;18.48;31.35;98281.63;5153502;27;20520;-65
2022/05/22 00:17:57;;;;;;;3.17;1.70;;;;;;;18.44;31.18;98281.22;5152948;27;20051;-64
2022/05/22 00:20:23;;;;;;;2.58;1.25;;;;;;;18.44;31.35;98288.44;5153903;27;20058;-64
2022/05/22 00:22:48;;;;;;;3.88;1.75;;;;;;;18.41;31.01;98278.13;5155761;27;20031;-64
2022/05/22 00:25:14;;;;;;;3.33;1.33;;;;;;;18.37;30.79;98272.34;5157418;27;20396;-64
2022/05/22 00:27:41;;;;;;;3.13;1.15;;;;;;;18.35;31.09;98274.41;5158020;27;20054;-64
2022/05/22 00:30:10;;;;;;;4.10;1.20;;;;;;;18.34;31.17;98267.41;5157002;27;20033;-64
2022/05/22 00:32:36;;;;;;;2.63;1.42;;;;;;;18.33;30.93;98272.94;5157497;27;20042;-64
2022/05/22 00:35:02;;;;;;;3.78;1.35;;;;;;;18.30;30.85;98271.50;5156985;27;20393;-64
2022/05/22 00:37:27;;;;;;;2.92;1.20;;;;;;;18.29;30.77;98272.53;5140532;27;20031;-64
2022/05/22 00:39:53;;;;;;;2.67;1.67;;;;;;;18.27;31.14;98266.53;5136345;27;20046;-65
2022/05/22 00:42:21;;;;;;;4.63;1.15;;;;;;;18.26;31.03;98265.72;5136471;27;20436;-65
2022/05/22 00:44:48;;;;;;;2.63;1.20;;;;;;;18.24;31.22;98261.59;5155407;27;20457;-65
2022/05/22 00:47:14;;;;;;;2.25;1.10;;;;;;;18.23;31.02;98259.97;5157154;27;20037;-65
2022/05/22 00:49:43;;;;;;;4.97;1.38;;;;;;;18.22;31.48;98263.66;5156976;27;20511;-65
2022/05/22 00:52:17;;;;;;;2.05;1.38;;;;;;;18.20;31.27;98255.00;5156669;27;20079;-64
2022/05/22 00:54:45;;;;;;;3.35;1.10;;;;;;;18.18;31.60;98260.53;5156898;27;20489;-65
2022/05/22 00:57:33;;;;;;;2.38;1.10;;;;;;;18.16;31.74;98257.25;5157169;27;20055;-64
2022/05/22 01:00:05;;;;;;;1.33;0.98;;;;;;;18.14;31.12;98253.97;5156159;27;20114;-65
2022/05/22 01:03:26;;;;;;;2.47;1.45;;;;;;;18.13;31.46;98250.44;5138979;27;20057;-65
2022/05/22 01:05:16;;;;;;;3.17;1.25;;;;;;;18.11;31.61;98257.84;5157094;27;20062;-64
2022/05/22 01:07:42;;;;;;;4.38;1.55;;;;;;;18.11;31.75;98251.69;5157029;27;20106;-65
2022/05/22 01:10:08;;;;;;;3.05;1.42;;;;;;;18.10;31.47;98248.16;5156599;27;20035;-65
2022/05/22 01:12:33;;;;;;;2.47;1.02;;;;;;;18.08;31.44;98241.38;5156563;27;20050;-64
2022/05/22 01:14:59;;;;;;;1.60;1.00;;;;;;;18.09;31.42;98251.06;5156494;27;20034;-65
2022/05/22 01:17:24;;;;;;;7.60;1.15;;;;;;;18.05;31.57;98245.28;5156559;27;20047;-65
2022/05/22 01:19:59;;;;;;;4.40;1.58;;;;;;;18.07;31.73;98245.91;5145913;27;20080;-65
2022/05/22 01:22:26;;;;;;;2.03;1.05;;;;;;;18.03;31.78;98249.16;5149677;27;20035;-64
2022/05/22 01:24:53;;;;;;;3.97;1.70;;;;;;;18.03;31.76;98243.81;5155642;27;20038;-64
2022/05/22 01:27:19;;;;;;;2.67;1.50;;;;;;;18.03;31.95;98241.97;5135667;27;20564;-65
2022/05/22 01:29:45;;;;;;;1.35;1.08;;;;;;;18.02;31.51;98243.00;5151003;27;20045;-64
2022/05/22 01:32:10;;;;;;;1.83;1.05;;;;;;;17.99;31.61;98232.69;5156185;27;20439;-64
2022/05/22 01:34:35;;;;;;;4.53;1.88;;;;;;;17.99;31.34;98241.56;5155978;27;20019;-64
2022/05/22 01:37:01;;;;;;;3.08;1.60;;;;;;;17.98;31.10;98237.25;5169014;27;20034;-65
2022/05/22 01:39:26;;;;;;;3.13;1.23;;;;;;;17.98;31.22;98237.25;5164306;27;20074;-65
2022/05/22 01:41:52;;;;;;;2.35;1.20;;;;;;;17.97;31.33;98229.38;5156425;27;20030;-65
2022/05/22 01:44:18;;;;;;;3.20;1.30;;;;;;;17.95;30.99;98229.56;5155976;27;20037;-64
2022/05/22 01:46:43;;;;;;;5.53;1.52;;;;;;;17.94;31.48;98225.25;5156208;27;20037;-65
2022/05/22 01:49:09;;;;;;;3.05;1.50;;;;;;;17.93;31.30;98226.28;5155633;27;20229;-65
2022/05/22 01:51:37;;;;;;;1.65;1.10;;;;;;;17.92;31.25;98224.63;5156196;27;20026;-65
2022/05/22 01:54:04;;;;;;;2.03;1.15;;;;;;;17.92;31.11;98229.97;5155779;27;20027;-65
2022/05/22 01:56:31;;;;;;;3.08;1.30;;;;;;;17.93;31.14;98220.09;5156114;27;20496;-65
2022/05/22 01:58:57;;;;;;;2.13;1.17;;;;;;;17.91;31.14;98222.16;5155074;27;20486;-65
2022/05/22 02:01:23;;;;;;;2.92;1.27;;;;;;;17.91;30.88;98222.16;5156056;27;20090;-65
2022/05/22 02:03:48;;;;;;;2.10;1.23;;;;;;;17.90;30.83;98225.84;5155594;27;20444;-64
2022/05/22 02:06:14;;;;;;;2.72;1.27;;;;;;;17.91;30.80;98224.84;5155867;27;20110;-65
2022/05/22 02:08:40;;;;;;;4.80;1.40;;;;;;;17.88;30.95;98228.72;5154803;27;20019;-65
2022/05/22 02:11:07;;;;;;;2.08;1.27;;;;;;;17.89;30.71;98224.19;5155458;27;20034;-64
2022/05/22 02:13:38;;;;;;;2.13;1.05;;;;;;;17.91;30.70;98222.97;5155215;27;20034;-64
2022/05/22 02:16:04;;;;;;;1.98;1.25;;;;;;;17.88;30.67;98218.00;5138588;27;20034;-64
2022/05/22 02:18:30;;;;;;;2.95;1.42;;;;;;;17.87;30.48;98221.72;5134941;27;20031;-65
2022/05/22 02:20:56;;;;;;;2.45;1.10;;;;;;;17.87;30.67;98221.72;5154213;27;20504;-64
2022/05/22 02:23:22;;;;;;;1.85;1.00;;;;;;;17.88;30.97;98217.19;5154769;27;20035;-64
2022/05/22 02:25:51;;;;;;;3.22;1.33;;;;;;;17.89;30.65;98210.81;5137521;27;20026;-64
2022/05/22 02:28:18;;;;;;;3.28;1.13;;;;;;;17.89;30.89;98218.84;5155128;27;20019;-65
2022/05/22 02:30:50;;;;;;;4.28;2.00;;;;;;;17.91;31.06;98212.25;5155143;27;20117;-65
2022/05/22 02:33:16;;;;;;;2.78;1.20;;;;;;;17.91;30.92;98212.25;5147656;27;20086;-65
2022/05/22 02:35:42;;;;;;;1.80;1.17;;;;;;;17.95;31.06;98213.53;5135917;27;20038;-65
2022/05/22 02:38:10;;;;;;;1.98;1.00;;;;;;;17.94;30.98;98206.53;5154591;27;20030;-64
2022/05/22 02:40:36;;;;;;;1.85;1.15;;;;;;;17.97;30.71;98210.63;5155183;27;20039;-65
2022/05/22 02:43:02;;;;;;;6.35;1.20;;;;;;;17.97;30.73;98208.81;5152590;27;20042;-65
2022/05/22 02:45:39;;;;;;;2.60;0.95;;;;;;;17.99;30.72;98214.81;5138023;27;20027;-64
2022/05/22 02:48:05;;;;;;;2.92;1.30;;;;;;;17.98;31.10;98215.00;5154718;27;20501;-65
2022/05/22 02:50:32;;;;;;;2.10;1.23;;;;;;;18.00;30.63;98220.97;5155148;27;20030;-64
2022/05/22 02:52:57;;;;;;;4.80;1.42;;;;;;;18.01;30.78;98227.16;5154593;27;20066;-65
2022/05/22 02:55:24;;;;;;;3.50;1.45;;;;;;;18.03;30.27;98217.06;5154664;27;20058;-65
2022/05/22 02:57:49;;;;;;;3.67;1.25;;;;;;;18.03;30.47;98217.06;5154696;27;20070;-65
2022/05/22 03:00:23;;;;;;;3.42;1.23;;;;;;;18.03;30.20;98215.22;5149621;27;20058;-64
2022/05/22 03:02:50;;;;;;;2.70;1.35;;;;;;;18.06;30.05;98213.97;5133783;27;20023;-64
2022/05/22 03:05:15;;;;;;;2.28;1.20;;;;;;;18.09;29.87;98211.72;5136100;27;20035;-64
2022/05/22 03:07:41;;;;;;;2.70;1.25;;;;;;;18.14;29.89;98214.63;5133851;27;20121;-64
2022/05/22 03:10:09;;;;;;;4.47;1.38;;;;;;;18.23;29.98;98203.75;5151821;27;20489;-65
2022/05/22 03:12:35;;;;;;;1.77;0.90;;;;;;;18.40;29.66;98220.25;5153374;27;20034;-64
2022/05/22 03:15:02;;;;;;;3.60;1.40;;;;;;;18.65;29.86;98216.94;5154703;27;20030;-65
2022/05/22 03:17:27;;;;;;;3.35;1.58;;;;;;;18.85;29.79;98217.78;5154232;27;20098;-65
2022/05/22 03:19:53;;;;;;;2.88;1.27;;;;;;;19.10;29.34;98214.47;5154273;27;20030;-65
2022/05/22 03:22:19;;;;;;;3.67;1.30;;;;;;;19.25;29.37;98218.78;5154603;27;20030;-65
2022/05/22 03:24:44;;;;;;;1.63;1.10;;;;;;;19.33;29.25;98218.56;5154163;27;20038;-65
2022/05/22 03:27:14;;;;;;;2.25;1.20;;;;;;;19.33;29.22;98218.56;5154211;27;20034;-65
2022/05/22 03:29:42;;;;;;;2.88;1.10;;;;;;;19.34;29.21;98220.19;5153961;27;20035;-64
2022/05/22 03:32:08;;;;;;;1.92;1.17;;;;;;;19.34;29.06;98210.31;5153624;27;20030;-64
2022/05/22 03:34:34;;;;;;;4.30;1.45;;;;;;;19.40;28.92;98210.50;5153832;27;20023;-64
2022/05/22 03:37:00;;;;;;;1.60;1.30;;;;;;;19.48;28.70;98221.81;5154087;27;20512;-64
2022/05/22 03:39:26;;;;;;;4.50;1.27;;;;;;;19.52;29.06;98215.00;5153976;27;20034;-64
2022/05/22 03:41:52;;;;;;;3.17;1.15;;;;;;;19.55;28.99;98199.50;5153972;27;20035;-64
2022/05/22 03:44:18;;;;;;;4.82;1.70;;;;;;;19.56;29.22;98210.00;5154117;27;20053;-65
2022/05/22 03:46:44;;;;;;;1.25;0.93;;;;;;;19.55;29.26;98203.03;5153982;27;20030;-64
2022/05/22 03:49:10;;;;;;;4.75;1.35;;;;;;;19.53;28.90;98202.41;5153496;27;20026;-64
2022/05/22 03:51:35;;;;;;;2.30;1.27;;;;;;;19.49;29.04;98196.63;5153833;27;20122;-64
2022/05/22 03:54:01;;;;;;;5.25;1.20;;;;;;;19.54;28.94;98206.75;5134949;27;20034;-64
2022/05/22 03:56:27;;;;;;;3.08;1.10;;;;;;;19.60;28.87;98208.56;5155262;27;20030;-65
2022/05/22 03:58:52;;;;;;;4.00;1.33;;;;;;;19.63;28.87;98199.28;5157889;27;20046;-65
2022/05/22 04:01:18;;;;;;;1.95;1.23;;;;;;;19.62;29.02;98192.28;5157908;27;20078;-64
2022/05/22 04:03:44;;;;;;;1.73;1.23;;;;;;;19.60;28.71;98202.38;5156651;27;20038;-65
2022/05/22 04:06:11;;;;;;;1.85;1.17;;;;;;;19.55;28.60;98197.66;5137477;27;20512;-65
2022/05/22 04:08:37;;;;;;;2.95;1.40;;;;;;;19.50;28.79;98192.09;5136808;27;20052;-65
2022/05/22 04:11:20;;;;;;;3.55;1.10;;;;;;;19.46;28.84;98183.66;5143588;27;20069;-64
2022/05/22 04:13:47;;;;;;;2.03;1.27;;;;;;;19.44;28.87;98187.56;5157982;27;20446;-64
2022/05/22 04:16:13;;;;;;;4.28;1.52;;;;;;;19.44;28.67;98183.03;5157855;27;20031;-64
2022/05/22 04:18:39;;;;;;;2.00;1.50;;;;;;;19.45;28.75;98183.84;5153209;27;20039;-64
2022/05/22 04:21:05;;;;;;;3.30;1.17;;;;;;;19.43;28.87;98192.13;5136708;27;20031;-64
2022/05/22 04:26:15;;;;;;;3.70;1.23;;;;;;;19.48;28.92;98186.94;5137453;27;20543;-64
2022/05/22 04:28:41;;;;;;;7.05;1.52;;;;;;;19.65;28.71;98189.13;5136639;27;20031;-64
2022/05/22 04:31:06;;;;;;;5.10;1.23;;;;;;;19.86;28.61;98188.00;5157281;27;20030;-64
2022/05/22 04:33:32;;;;;;;2.55;1.33;;;;;;;20.01;28.23;98189.63;5157561;27;20482;-65
2022/05/22 04:35:59;;;;;;;4.70;2.60;;;;;;;20.19;28.30;98180.84;5161234;27;20033;-64
2022/05/22 04:38:24;;;;;;;2.33;1.38;;;;;;;20.46;27.90;98184.16;5177122;27;20038;-64
2022/05/22 04:40:57;;;;;;;4.72;1.58;;;;;;;20.72;27.45;98188.50;5156973;27;20121;-65
2022/05/22 04:43:25;;;;;;;5.15;1.90;;;;;;;20.98;27.14;98183.94;5157687;27;20193;-64
2022/05/22 04:45:51;;;;;;;4.03;1.52;;;;;;;21.20;27.00;98178.16;5157464;27;20035;-65
2022/05/22 04:48:21;;;;;;;1.88;1.23;;;;;;;21.41;26.54;98184.94;5157008;27;20026;-64
2022/05/22 04:50:48;;;;;;;3.95;1.58;;;;;;;21.57;26.21;98188.88;5156484;27;20062;-64
2022/05/22 04:53:16;;;;;;;2.08;1.20;;;;;;;21.72;26.00;98188.53;5157063;27;20102;-65
2022/05/22 04:55:41;;;;;;;8.13;1.73;;;;;;;21.82;25.89;98177.25;5157034;27;20027;-64
2022/05/22 04:58:07;;;;;;;3.55;1.52;;;;;;;21.93;25.56;98187.22;5156274;27;20042;-65
2022/05/22 05:00:32;;;;;;;2.95;1.30;;;;;;;22.01;25.58;98186.09;5156383;27;20502;-66
2022/05/22 05:02:58;;;;;;;3.95;1.58;;;;;;;22.08;25.50;98189.50;5137880;27;20095;-65
2022/05/22 05:05:24;;;;;;;3.17;1.30;;;;;;;22.01;25.61;98166.41;5135999;27;20035;-62
2022/05/22 05:07:49;;;;;;;2.70;1.40;;;;;;;22.16;25.41;98188.34;5135341;27;20035;-65
2022/05/22 05:10:15;;;;;;;2.30;1.45;;;;;;;22.19;25.34;98190.59;5153755;27;20485;-63
2022/05/22 05:12:42;;;;;;;4.07;1.25;;;;;;;22.23;25.26;98177.47;5156665;27;20069;-63
2022/05/22 05:15:11;;;;;;;3.60;2.05;;;;;;;22.26;25.20;98177.00;5149571;27;20509;-63
2022/05/22 05:17:36;;;;;;;2.83;1.33;;;;;;;22.27;25.62;98181.34;5135689;27;20075;-64
2022/05/22 05:20:03;;;;;;;4.50;1.38;;;;;;;22.29;25.23;98186.50;5148229;27;20469;-63
2022/05/22 05:22:32;;;;;;;1.63;1.10;;;;;;;22.30;25.20;98174.66;5156699;27;20054;-63
2022/05/22 05:24:57;;;;;;;2.30;1.40;;;;;;;22.31;25.30;98181.72;5155377;27;20086;-64
2022/05/22 05:27:23;;;;;;;2.03;1.30;;;;;;;22.31;25.11;98182.53;5156355;27;20109;-64
2022/05/22 05:29:48;;;;;;;2.67;1.00;;;;;;;22.29;25.14;98178.41;5156127;27;20038;-64
2022/05/22 05:32:18;;;;;;;5.32;1.20;;;;;;;22.28;25.20;98185.69;5156636;27;20063;-64
2022/05/22 05:34:44;;;;;;;2.35;1.38;;;;;;;22.27;25.21;98175.97;5156117;27;20397;-64
2022/05/22 05:37:09;;;;;;;1.45;1.00;;;;;;;22.27;25.08;98181.34;5170404;27;20034;-64
2022/05/22 05:39:35;;;;;;;3.28;1.27;;;;;;;22.27;25.18;98185.94;5176676;27;20030;-64
2022/05/22 05:42:01;;;;;;;6.70;1.17;;;;;;;22.24;25.18;98174.56;5176948;27;20034;-64
2022/05/22 05:44:27;;;;;;;2.83;1.15;;;;;;;22.23;25.06;98177.47;5164273;27;20031;-63
2022/05/22 05:46:52;;;;;;;3.55;1.20;;;;;;;22.21;25.19;98171.50;5156342;27;20397;-64
2022/05/22 05:49:18;;;;;;;2.08;1.05;;;;;;;22.20;25.15;98183.34;5156131;27;20034;-63
2022/05/22 05:51:43;;;;;;;4.03;1.00;;;;;;;22.19;25.28;98174.41;5156327;27;20034;-64
2022/05/22 05:54:09;;;;;;;2.95;1.00;;;;;;;22.19;25.36;98179.00;5154965;27;20552;-63
2022/05/22 05:56:41;;;;;;;2.67;1.25;;;;;;;22.19;25.27;98173.63;5156089;27;20043;-63
2022/05/22 05:59:08;;;;;;;2.05;1.10;;;;;;;22.17;25.31;98179.22;5155813;27;20079;-64
2022/05/22 06:01:34;;;;;;;2.58;1.08;;;;;;;22.17;25.53;98173.03;5144069;27;20401;-63
2022/05/22 06:04:01;;;;;;;2.30;1.20;;;;;;;22.16;25.59;98180.25;5140128;27;20110;-63
2022/05/22 06:06:27;;;;;;;2.08;1.30;;;;;;;22.14;25.38;98187.75;5144051;27;20079;-64
2022/05/22 06:08:53;;;;;;;3.53;1.35;;;;;;;22.12;25.37;98195.25;5155290;27;20054;-63
2022/05/22 06:11:19;;;;;;;1.70;1.20;;;;;;;22.07;25.31;98187.84;5155409;27;20066;-64
2022/05/22 06:13:45;;;;;;;3.45;1.20;;;;;;;22.03;25.22;98186.69;5154636;27;20154;-63
2022/05/22 06:16:11;;;;;;;3.08;1.33;;;;;;;21.98;25.60;98177.66;5155503;27;20509;-63
2022/05/22 06:18:37;;;;;;;2.28;1.38;;;;;;;21.90;25.67;98179.59;5155170;27;20117;-63
2022/05/22 06:21:10;;;;;;;3.53;1.20;;;;;;;21.85;26.01;98187.53;5155859;27;20122;-63
2022/05/22 06:23:38;;;;;;;2.03;1.02;;;;;;;21.79;25.75;98191.16;5154183;27;20053;-64
2022/05/22 06:26:07;;;;;;;1.88;1.00;;;;;;;21.73;25.89;98187.50;5138694;27;20044;-63
2022/05/22 06:28:33;;;;;;;1.48;0.90;;;;;;;21.67;25.99;98185.69;5154327;27;20030;-63
2022/05/22 06:30:59;;;;;;;2.80;1.33;;;;;;;21.63;25.84;98181.81;5155090;27;20552;-63
2022/05/22 06:33:24;;;;;;;3.53;1.15;;;;;;;21.59;25.92;98184.09;5155027;27;20462;-62
2022/05/22 06:35:50;;;;;;;3.17;1.40;;;;;;;21.54;25.96;98183.97;5152498;27;20490;-63
2022/05/22 06:41:07;;;;;;;2.13;1.00;;;;;;;21.43;26.25;98173.94;5154942;27;20042;-63
2022/05/22 06:43:33;;;;;;;1.80;0.90;;;;;;;21.39;26.28;98186.22;5154749;27;20057;-62
2022/05/22 06:45:59;;;;;;;3.50;1.00;;;;;;;21.37;26.25;98178.38;5155061;27;20467;-63
2022/05/22 06:48:25;;;;;;;5.93;1.20;;;;;;;21.32;25.99;98176.34;5154654;27;20034;-63
2022/05/22 06:50:50;;;;;;;2.13;1.00;;;;;;;21.30;26.20;98175.75;5155281;27;20034;-63
2022/05/22 06:53:16;;;;;;;3.55;1.27;;;;;;;21.26;25.87;98188.00;5154394;27;20480;-63
2022/05/22 06:55:41;;;;;;;2.22;1.00;;;;;;;21.24;26.46;98175.81;5154979;27;20065;-63
2022/05/22 06:58:08;;;;;;;1.73;0.73;;;;;;;21.21;26.04;98187.84;5154447;27;20121;-64
2022/05/22 07:00:34;;;;;;;2.20;1.15;;;;;;;21.17;26.34;98183.97;5155025;27;20034;-64
2022/05/22 07:02:59;;;;;;;2.15;1.02;;;;;;;21.16;25.80;98195.75;5153887;27;20034;-64
2022/05/22 07:05:26;;;;;;;3.03;1.30;;;;;;;21.10;25.96;98194.78;5153435;27;20038;-63
2022/05/22 07:07:52;;;;;;;2.88;1.00;;;;;;;21.08;26.09;98180.75;5133491;27;20129;-64
2022/05/22 07:10:18;;;;;;;2.20;1.45;;;;;;;21.05;26.51;98178.50;5134292;27;20110;-64
2022/05/22 07:12:44;;;;;;;2.92;1.20;;;;;;;21.01;26.46;98172.75;5154458;27;20034;-64
2022/05/22 07:15:10;;;;;;;2.67;1.10;;;;;;;21.01;26.72;98174.63;5153896;27;20033;-64
2022/05/22 07:17:37;;;;;;;2.17;1.23;;;;;;;20.98;26.02;98181.25;5154140;27;20046;-64
2022/05/22 07:20:04;;;;;;;4.25;1.20;;;;;;;20.93;26.36;98170.34;5154225;27;20035;-64
2022/05/22 07:22:29;;;;;;;3.22;1.30;;;;;;;20.95;26.42;98176.34;5154271;27;20409;-64
2022/05/22 07:24:55;;;;;;;2.30;1.10;;;;;;;20.92;26.29;98174.09;5150235;27;20042;-64
2022/05/22 07:27:22;;;;;;;3.25;1.20;;;;;;;20.90;26.01;98173.47;5154171;27;20022;-64
2022/05/22 07:29:48;;;;;;;2.67;1.42;;;;;;;20.88;26.27;98175.56;5153523;27;20117;-63
2022/05/22 07:32:14;;;;;;;2.47;1.20;;;;;;;20.86;25.46;98177.66;5153783;27;20031;-63
2022/05/22 07:34:42;;;;;;;1.92;1.45;;;;;;;20.82;25.68;98179.97;5153998;27;20034;-64
2022/05/22 07:37:09;;;;;;;1.95;0.98;;;;;;;20.81;25.57;98174.78;5167837;27;20030;-64
2022/05/22 07:39:34;;;;;;;1.98;1.00;;;;;;;20.79;25.63;98171.53;5166978;27;20031;-64
2022/05/22 07:42:00;;;;;;;2.85;1.10;;;;;;;20.77;26.11;98174.41;5154070;27;20450;-64
2022/05/22 07:44:26;;;;;;;4.53;1.65;;;;;;;20.76;26.48;98169.28;5153939;27;20034;-64
2022/05/22 07:46:51;;;;;;;2.28;1.30;;;;;;;20.74;26.63;98156.84;5153945;27;20034;-63
2022/05/22 07:52:08;;;;;;;7.13;1.05;;;;;;;20.68;25.34;98164.97;5154077;27;20082;-63
2022/05/22 07:54:39;;;;;;;2.67;1.10;;;;;;;20.66;25.42;98159.78;5153910;27;20023;-64
2022/05/22 07:57:05;;;;;;;;;;;;;;;20.58;25.82;98170.84;5154085;27;20031;-64
2022/05/22 07:59:35;;;;;;;2.05;1.05;;;;;;;20.57;25.67;98161.97;5153638;27;19969;-64
2022/05/22 08:02:02;;;;;;;1.95;1.15;;;;;;;20.56;25.79;98154.09;5151591;27;20031;-63
2022/05/22 08:04:28;;;;;;;3.67;1.35;;;;;;;20.56;25.78;98144.19;5152390;27;20034;-64
2022/05/22 08:06:54;;;;;;;2.08;1.20;;;;;;;20.56;25.97;98146.88;5151198;27;20038;-64
2022/05/22 08:09:19;;;;;;;3.25;1.33;;;;;;;20.55;25.52;98155.16;5148529;27;20527;-64
2022/05/22 08:11:45;;;;;;;2.88;1.73;;;;;;;20.56;25.60;98164.84;5147190;27;20038;-64
2022/05/22 08:14:11;;;;;;;15.30;1.42;;;;;;;20.53;25.99;98147.31;5152348;27;20517;-63
2022/05/22 08:16:37;;;;;;;3.83;1.42;;;;;;;20.53;26.00;98149.16;5145170;27;20047;-63
2022/05/22 08:19:03;;;;;;;6.18;1.45;;;;;;;20.52;25.65;98160.94;5149176;27;20421;-62
2022/05/22 08:21:29;;;;;;;3.55;2.13;;;;;;;20.50;24.97;98146.94;5153125;27;20034;-63
2022/05/22 08:23:54;;;;;;;4.10;1.95;;;;;;;20.49;25.58;98158.72;5125075;27;20109;-62
2022/05/22 08:26:20;;;;;;;5.35;1.85;;;;;;;20.48;25.75;98151.72;5151813;27;20053;-63
2022/05/22 08:28:45;;;;;;;4.80;1.70;;;;;;;20.46;25.64;98141.16;5150966;27;20253;-64
2022/05/22 08:31:11;;;;;;;3.85;1.80;;;;;;;20.46;26.12;98137.66;5150790;27;20038;-62
2022/05/22 08:33:37;;;;;;;2.35;1.88;;;;;;;20.47;26.26;98153.56;5152000;27;20035;-66
2022/05/22 08:36:03;;;;;;;6.80;2.28;;;;;;;20.37;26.89;98137.94;5151501;27;20121;-63
2022/05/22 08:38:29;;;;;;;6.18;2.05;;;;;;;20.25;27.32;98147.72;5151622;27;20034;-63
2022/05/22 08:40:54;;;;;;;5.82;1.90;;;;;;;20.17;27.19;98156.88;5152207;27;20481;-65
2022/05/22 08:43:33;;;;;;;3.90;1.88;;;;;;;20.07;27.45;98151.97;5152835;27;20026;-65
2022/05/22 08:46:13;;;;;;;4.03;1.92;;;;;;;19.96;27.10;98144.63;5146242;27;20030;-65
2022/05/22 08:48:46;;;;;;;2.88;1.60;;;;;;;19.87;26.87;98144.06;5150714;27;20027;-66
2022/05/22 08:51:18;;;;;;;5.75;1.60;;;;;;;19.81;26.95;98143.03;5156626;27;20405;-66
2022/05/22 08:53:52;;;;;;;5.18;1.73;;;;;;;19.75;27.03;98143.91;5157212;27;20031;-66
2022/05/22 08:59:21;;;;;;;4.40;2.03;;;;;;;19.60;26.72;98141.50;5156035;27;20050;-66
2022/05/22 09:01:51;;;;;;;3.38;1.98;;;;;;;19.56;26.97;98139.44;5148989;27;20041;-66
2022/05/22 09:04:48;;;;;;;2.20;1.45;;;;;;;19.55;27.17;98148.53;5155207;27;20050;-66
2022/05/22 09:07:19;;;;;;;3.08;1.83;;;;;;;19.56;26.50;98144.81;5151023;27;20049;-67
2022/05/22 09:09:57;;;;;;;;;;;;;;;19.48;26.51;98138.66;5137313;27;20098;-67
2022/05/22 09:12:47;;;;;;;2.13;1.45;;;;;;;19.46;26.02;98127.34;5146264;27;19915;-65
2022/05/22 09:15:39;;;;;;;2.58;1.63;;;;;;;19.45;25.57;98136.41;5135419;27;20411;-66
2022/05/22 09:18:04;;;;;;;;;;;;;;;19.38;26.14;98132.91;5136133;27;20738;-65
2022/05/22 09:21:08;;;;;;;1.83;1.20;;;;;;;19.39;25.63;98131.88;5151388;27;19957;-64
2022/05/22 09:23:36;;;;;;;4.47;1.20;;;;;;;19.39;25.45;98131.88;5098792;27;20038;-65
2022/05/22 09:26:05;;;;;;;2.80;1.35;;;;;;;19.38;25.77;98140.97;5137851;27;20605;-65
2022/05/22 09:29:09;;;;;;;5.65;1.50;;;;;;;19.36;25.60;98135.00;5155804;27;20109;-66
2022/05/22 09:31:57;;;;;;;2.10;1.33;;;;;;;19.34;25.54;98124.47;5155770;27;20046;-65
2022/05/22 09:34:25;;;;;;;4.63;1.55;;;;;;;19.35;25.83;98127.97;5156204;27;20125;-65
2022/05/22 09:37:29;;;;;;;3.63;1.40;;;;;;;19.32;26.04;98121.19;5144865;27;20042;-65
2022/05/22 09:39:57;;;;;;;4.57;1.60;;;;;;;19.28;26.32;98122.63;5135578;27;20035;-65
2022/05/22 09:42:36;;;;;;;2.70;1.42;;;;;;;19.27;25.76;98118.31;5153423;27;20041;-65
2022/05/22 09:45:39;;;;;;;5.45;1.55;;;;;;;19.25;25.31;98136.50;5156177;27;20038;-65
2022/05/22 09:48:38;;;;;;;3.35;1.42;;;;;;;19.19;25.43;98130.09;5155546;27;20066;-64
2022/05/22 09:51:09;;;;;;;2.05;1.20;;;;;;;19.15;25.69;98131.56;5156344;27;20088;-66
2022/05/22 09:53:40;;;;;;;4.15;1.52;;;;;;;19.16;25.05;98127.03;5155779;27;20062;-65
2022/05/22 09:56:39;;;;;;;2.25;1.30;;;;;;;19.13;24.87;98122.91;5156067;27;20037;-65
2022/05/22 09:59:10;;;;;;;2.15;1.00;;;;;;;19.15;24.82;98120.00;5154866;27;20034;-66
2022/05/22 10:01:45;;;;;;;4.93;1.48;;;;;;;19.15;24.92;98120.00;5155284;27;20079;-65
2022/05/22 10:04:38;;;;;;;3.83;1.35;;;;;;;19.13;24.33;98119.38;5155470;27;20038;-66
2022/05/22 10:07:49;;;;;;;2.67;1.60;;;;;;;19.13;24.33;98117.56;5155748;27;20039;-66
2022/05/22 10:10:48;;;;;;;2.42;1.65;;;;;;;19.11;24.80;98110.75;5109409;27;20038;-66
2022/05/22 10:13:32;;;;;;;2.13;1.27;;;;;;;19.09;24.94;98112.81;5155520;27;20030;-66
2022/05/22 10:16:36;;;;;;;4.35;1.20;;;;;;;19.05;25.08;98115.09;5154900;27;20409;-66
2022/05/22 10:19:27;;;;;;;3.80;1.27;;;;;;;19.01;25.06;98108.53;5154417;27;20034;-66
2022/05/22 10:22:01;;;;;;;4.80;1.40;;;;;;;19.00;24.95;98112.22;5155715;27;20039;-66
2022/05/22 10:24:41;;;;;;;2.67;1.67;;;;;;;19.02;24.39;98119.03;5154449;27;20038;-66
2022/05/22 10:27:35;;;;;;;2.55;1.60;;;;;;;19.00;24.95;98107.69;5155036;27;20091;-64
2022/05/22 10:30:08;;;;;;;2.90;1.50;;;;;;;19.00;24.22;98117.59;5155339;27;20031;-65
2022/05/22 10:32:42;;;;;;;3.28;1.60;;;;;;;18.99;23.61;98115.94;5155037;27;20114;-66
2022/05/22 10:35:18;;;;;;;2.78;1.40;;;;;;;18.99;23.67;98111.38;5118132;27;20034;-65
2022/05/22 10:37:47;;;;;;;3.35;1.60;;;;;;;18.98;24.09;98108.94;5173655;27;20031;-65
2022/05/22 10:40:17;;;;;;;2.97;1.40;;;;;;;18.98;24.33;98115.09;5157673;27;20031;-65
2022/05/22 10:42:48;;;;;;;1.85;1.13;;;;;;;18.96;23.79;98121.72;5154571;27;20031;-65
2022/05/22 10:45:22;;;;;;;4.15;1.27;;;;;;;18.94;24.25;98105.00;5154430;27;20045;-65
2022/05/22 10:47:50;;;;;;;2.13;1.27;;;;;;;18.94;24.33;98113.03;5155012;27;20026;-65
2022/05/22 10:50:26;;;;;;;2.92;1.65;;;;;;;18.92;24.46;98100.66;5154203;27;20038;-67
2022/05/22 10:52:53;;;;;;;2.78;1.85;;;;;;;18.90;24.44;98112.63;5154292;27;20034;-65
2022/05/22 10:55:37;;;;;;;3.28;2.13;;;;;;;18.90;24.68;98112.63;5154641;27;20026;-65
2022/05/22 10:58:23;;;;;;;12.30;2.90;;;;;;;18.90;24.95;98101.91;5154574;27;20027;-65
2022/05/22 11:00:58;;;;;;;9.50;3.60;;;;;;;18.90;25.22;98102.72;5134098;27;20034;-65
2022/05/22 11:03:29;;;;;;;30.80;9.48;;;;;;;18.90;24.99;98115.31;5133994;27;20054;-65
2022/05/22 11:05:57;;;;;;;55.65;17.77;;;;;;;18.91;25.81;98108.94;5139511;27;20027;-65
2022/05/22 11:08:46;;;;;;;61.63;19.35;;;;;;;18.92;26.04;98105.22;5137244;27;20030;-65
2022/05/22 11:11:13;;;;;;;74.05;24.42;;;;;;;18.90;26.53;98107.28;5141781;27;20038;-65
2022/05/22 11:13:39;;;;;;;56.83;19.17;;;;;;;18.94;26.58;98111.22;5154014;27;20026;-65
2022/05/22 11:16:19;;;;;;;43.95;15.30;;;;;;;18.89;26.24;98117.19;5139833;27;20034;-65
2022/05/22 11:18:46;;;;;;;72.35;24.45;;;;;;;18.89;26.85;98103.78;5133710;27;20042;-65
2022/05/22 11:21:16;;;;;;;59.92;18.90;;;;;;;18.92;26.99;98114.06;5133864;27;20057;-65
2022/05/22 11:24:07;;;;;;;35.28;14.13;;;;;;;18.92;26.67;98110.56;5135702;27;20595;-65
2022/05/22 11:26:55;;;;;;;36.28;14.00;;;;;;;18.90;26.66;98113.44;5154095;27;20519;-65
2022/05/22 11:29:39;;;;;;;37.28;14.43;;;;;;;18.91;26.50;98117.78;5154143;27;20022;-65
2022/05/22 11:32:07;;;;;;;26.48;10.38;;;;;;;18.92;26.69;98119.41;5154765;27;20045;-65
2022/05/22 11:34:41;;;;;;;29.75;11.20;;;;;;;18.92;26.42;98119.41;5153743;27;20027;-65
2022/05/22 11:37:49;;;;;;;33.85;11.75;;;;;;;18.91;26.49;98114.28;5167583;27;20408;-66
2022/05/22 11:40:43;;;;;;;21.58;8.05;;;;;;;18.91;26.42;98122.31;5174675;27;20390;-66
2022/05/22 11:43:14;;;;;;;17.73;8.40;;;;;;;18.88;26.59;98123.56;5175467;27;20041;-66
2022/05/22 11:45:55;;;;;;;;;;;;;;;18.81;26.43;98121.94;5161593;27;20031;-66
2022/05/22 11:48:59;;;;;;;13.45;5.15;;;;;;;18.80;26.35;98129.13;5154377;27;19966;-66
2022/05/22 11:51:43;;;;;;;16.38;6.55;;;;;;;18.81;26.57;98128.13;5154333;27;20034;-66
2022/05/22 11:54:14;;;;;;;14.77;7.00;;;;;;;18.84;26.22;98127.69;5153644;27;20038;-67
2022/05/22 11:56:42;;;;;;;17.70;6.35;;;;;;;18.85;26.25;98129.34;5154038;27;20038;-67
2022/05/22 11:59:37;;;;;;;10.40;4.47;;;;;;;18.87;25.96;98119.25;5154074;27;20038;-67